Time;durP1;ratioP1;P1;durP2;ratioP2;P2;SDS_P1;SDS_P2;PMS_P1;PMS_P2;Temp;Humidity;BMP_temperature;BMP_pressure;BME280_temperature;BME280_humidity;BME280_pressure;Samples;Min_cycle;Max_cycle;Signal;HPM_P1;HPM_P2
2022/09/09 00:01:37;;;;;;;44.05;19.17;;;13.10;99.90;;;;;;5050074;28;20033;-42
2022/09/09 00:04:20;;;;;;;50.08;20.75;;;13.00;99.90;;;;;;5049593;28;20093;-40
2022/09/09 00:07:16;;;;;;;33.03;18.98;;;13.10;99.90;;;;;;5050683;28;20049;-40
2022/09/09 00:09:50;;;;;;;44.33;19.95;;;13.00;99.90;;;;;;5048607;28;20479;-40
2022/09/09 00:12:25;;;;;;;45.17;20.83;;;13.00;99.90;;;;;;5049895;28;20386;-41
2022/09/09 00:15:02;;;;;;;41.70;20.67;;;13.00;99.90;;;;;;5049440;28;20053;-40
2022/09/09 00:17:35;;;;;;;33.00;17.67;;;12.80;99.90;;;;;;5049149;28;20487;-40
2022/09/09 00:20:26;;;;;;;33.90;18.60;;;12.90;99.90;;;;;;5049031;28;20596;-41
2022/09/09 00:23:14;;;;;;;36.60;18.65;;;12.90;99.90;;;;;;5049672;28;20489;-40
2022/09/09 00:25:43;;;;;;;37.97;18.73;;;13.10;99.90;;;;;;5049528;28;20056;-40
2022/09/09 00:28:17;;;;;;;64.57;21.27;;;12.90;99.90;;;;;;5049364;28;20052;-40
2022/09/09 00:30:43;;;;;;;38.17;19.02;;;12.90;99.90;;;;;;5049154;28;20083;-40
2022/09/09 00:33:15;;;;;;;60.50;20.63;;;12.50;99.90;;;;;;5049258;28;20056;-40
2022/09/09 00:35:54;;;;;;;31.65;17.83;;;14.10;99.90;;;;;;5047413;28;20045;-40
2022/09/09 00:38:24;;;;;;;48.00;20.35;;;12.50;99.90;;;;;;5049304;28;20072;-40
2022/09/09 00:41:07;;;;;;;37.25;19.05;;;12.60;99.90;;;;;;5049239;28;20036;-40
2022/09/09 00:43:36;;;;;;;37.50;17.23;;;12.70;99.90;;;;;;5049322;28;20045;-40
2022/09/09 00:46:44;;;;;;;37.60;19.13;;;12.70;99.90;;;;;;5048884;28;20044;-40
2022/09/09 00:49:12;;;;;;;27.48;15.77;;;12.70;99.90;;;;;;5042680;28;20048;-40
2022/09/09 00:52:13;;;;;;;66.47;21.00;;;12.60;99.90;;;;;;5048662;28;20542;-40
2022/09/09 00:55:01;;;;;;;29.42;14.95;;;12.60;99.90;;;;;;5048267;28;20094;-40
2022/09/09 00:57:31;;;;;;;34.83;17.40;;;12.60;99.90;;;;;;5048608;28;20073;-40
2022/09/09 01:00:42;;;;;;;39.10;19.35;;;12.60;99.90;;;;;;5049078;28;20041;-40
2022/09/09 01:03:37;;;;;;;48.20;19.30;;;12.50;99.90;;;;;;5046611;28;20499;-39
2022/09/09 01:06:31;;;;;;;32.03;16.63;;;12.70;99.90;;;;;;5039319;28;20052;-39
2022/09/09 01:09:08;;;;;;;38.58;16.88;;;12.50;99.90;;;;;;5048739;28;20041;-40
2022/09/09 01:11:42;;;;;;;36.15;16.20;;;12.40;99.90;;;;;;5048083;28;20094;-40
2022/09/09 01:14:44;;;;;;;28.58;15.90;;;12.40;99.90;;;;;;5048317;28;20499;-39
2022/09/09 01:17:23;;;;;;;31.05;15.52;;;12.30;99.90;;;;;;5043198;28;20053;-39
2022/09/09 01:20:08;;;;;;;35.10;16.73;;;12.30;99.90;;;;;;5048414;28;20056;-40
2022/09/09 01:22:52;;;;;;;36.78;16.17;;;12.30;99.90;;;;;;5048811;28;20048;-40
2022/09/09 01:25:29;;;;;;;22.80;14.13;;;12.30;99.90;;;;;;5048911;28;20048;-40
2022/09/09 01:28:02;;;;;;;37.10;15.52;;;12.30;99.90;;;;;;5047983;28;20467;-40
2022/09/09 01:30:28;;;;;;;28.38;15.32;;;12.30;99.90;;;;;;5048549;28;20095;-40
2022/09/09 01:32:58;;;;;;;32.03;15.32;;;12.30;99.90;;;;;;5048094;28;20049;-40
2022/09/09 01:35:23;;;;;;;54.45;18.30;;;12.40;99.90;;;;;;5048037;28;20128;-40
2022/09/09 01:37:49;;;;;;;34.75;16.13;;;12.40;99.90;;;;;;5047504;28;20404;-40
2022/09/09 01:40:15;;;;;;;23.98;13.98;;;12.40;99.90;;;;;;5047175;28;20051;-40
2022/09/09 01:42:40;;;;;;;25.42;15.23;;;12.40;99.90;;;;;;5047249;28;20063;-41
2022/09/09 01:45:07;;;;;;;33.72;16.25;;;12.40;99.90;;;;;;5047382;28;20037;-40
2022/09/09 01:47:32;;;;;;;38.03;17.60;;;12.50;99.90;;;;;;5047137;28;20045;-40
2022/09/09 01:49:59;;;;;;;42.38;16.15;;;12.50;99.90;;;;;;5047232;28;20053;-40
2022/09/09 01:52:25;;;;;;;38.78;16.90;;;12.50;99.90;;;;;;5045593;28;20045;-41
2022/09/09 01:54:51;;;;;;;28.08;14.90;;;12.50;99.90;;;;;;5047305;28;20052;-40
2022/09/09 01:57:27;;;;;;;27.30;15.25;;;12.50;99.90;;;;;;5047447;28;20041;-40
2022/09/09 02:00:03;;;;;;;27.23;14.35;;;12.50;99.90;;;;;;5047521;28;20477;-40
2022/09/09 02:03:00;;;;;;;23.85;13.80;;;12.50;99.90;;;;;;5047026;28;20037;-40
2022/09/09 02:06:01;;;;;;;35.08;15.70;;;12.50;99.90;;;;;;5047170;28;20045;-41
2022/09/09 02:08:39;;;;;;;32.38;15.13;;;12.60;99.90;;;;;;5023397;28;20132;-40
2022/09/09 02:11:16;;;;;;;79.60;21.85;;;12.70;99.90;;;;;;5046765;28;20560;-40
2022/09/09 02:13:45;;;;;;;37.67;16.48;;;12.60;99.90;;;;;;5046756;28;20049;-40
2022/09/09 02:16:36;;;;;;;31.92;15.88;;;13.20;99.90;;;;;;5046331;28;20516;-40
2022/09/09 02:19:08;;;;;;;29.90;15.52;;;12.70;99.90;;;;;;5046387;28;20073;-40
2022/09/09 02:21:34;;;;;;;;;;;12.90;99.90;;;;;;5047312;28;20044;-41
2022/09/09 02:24:04;;;;;;;53.20;19.08;;;12.80;99.90;;;;;;5047001;28;20003;-41
2022/09/09 02:26:33;;;;;;;38.38;17.15;;;12.80;99.90;;;;;;5047183;28;20076;-39
2022/09/09 02:29:03;;;;;;;29.52;16.10;;;12.90;99.90;;;;;;5046232;28;20048;-40
2022/09/09 02:31:31;;;;;;;60.42;20.83;;;12.90;99.90;;;;;;5046448;28;20077;-40
2022/09/09 02:34:00;;;;;;;102.25;22.83;;;13.00;99.90;;;;;;5046017;28;20551;-40
2022/09/09 02:36:30;;;;;;;57.58;19.67;;;13.00;99.90;;;;;;5046907;28;20866;-40
2022/09/09 02:38:56;;;;;;;79.32;21.00;;;13.20;99.90;;;;;;5045600;28;20434;-40
2022/09/09 02:41:38;;;;;;;20.75;12.90;;;13.00;99.90;;;;;;5046595;28;20041;-40
2022/09/09 02:44:12;;;;;;;36.47;16.13;;;13.10;99.90;;;;;;5047145;28;20124;-40
2022/09/09 02:46:47;;;;;;;38.60;16.38;;;13.10;99.90;;;;;;5046293;28;20049;-40
2022/09/09 02:49:20;;;;;;;75.22;20.13;;;13.20;99.90;;;;;;5046439;28;20045;-40
2022/09/09 02:52:02;;;;;;;40.53;16.73;;;13.20;99.90;;;;;;5045823;28;20644;-40
2022/09/09 02:54:30;;;;;;;43.97;16.75;;;13.20;99.90;;;;;;5046796;28;20139;-40
2022/09/09 02:57:03;;;;;;;96.90;21.52;;;13.60;99.90;;;;;;5044804;28;20761;-40
2022/09/09 02:59:30;;;;;;;40.65;16.65;;;13.30;99.90;;;;;;5046503;28;20045;-40
2022/09/09 03:01:56;;;;;;;57.30;18.45;;;13.30;99.90;;;;;;5046179;28;20086;-40
2022/09/09 03:04:21;;;;;;;82.88;19.85;;;13.30;99.90;;;;;;5046827;28;20049;-40
2022/09/09 03:06:47;;;;;;;83.22;21.10;;;13.40;99.90;;;;;;5046177;28;20555;-40
2022/09/09 03:09:13;;;;;;;68.75;17.92;;;13.40;99.90;;;;;;5046808;28;20080;-40
2022/09/09 03:11:38;;;;;;;49.50;17.50;;;13.40;99.90;;;;;;5046809;28;20053;-40
2022/09/09 03:14:05;;;;;;;52.55;17.50;;;14.00;99.90;;;;;;5046714;28;20041;-40
2022/09/09 03:16:30;;;;;;;73.60;18.38;;;13.50;99.90;;;;;;5046972;28;20063;-41
2022/09/09 03:18:56;;;;;;;64.15;17.90;;;13.50;99.90;;;;;;5046371;28;20518;-40
2022/09/09 03:21:22;;;;;;;30.50;13.50;;;13.50;99.90;;;;;;5046242;28;20068;-40
2022/09/09 03:23:48;;;;;;;84.50;18.98;;;13.50;99.90;;;;;;5045867;28;20092;-40
2022/09/09 03:26:14;;;;;;;33.78;13.85;;;13.50;99.90;;;;;;5045963;28;20053;-40
2022/09/09 03:28:41;;;;;;;48.70;14.98;;;13.50;99.90;;;;;;5046328;28;20068;-40
2022/09/09 03:31:10;;;;;;;48.13;15.55;;;13.80;99.90;;;;;;5045733;28;20137;-40
2022/09/09 03:33:39;;;;;;;44.88;16.05;;;13.50;99.90;;;;;;5046421;28;20052;-40
2022/09/09 03:36:05;;;;;;;35.10;15.38;;;13.50;99.90;;;;;;5045712;28;20041;-40
2022/09/09 03:38:31;;;;;;;46.33;16.25;;;13.50;99.90;;;;;;5046582;28;20399;-40
2022/09/09 03:40:58;;;;;;;55.47;17.25;;;13.50;99.90;;;;;;5044776;28;20037;-40
2022/09/09 03:43:26;;;;;;;45.30;15.75;;;13.40;99.90;;;;;;5046152;28;20068;-40
2022/09/09 03:45:52;;;;;;;55.13;18.02;;;13.50;99.90;;;;;;5045442;28;20510;-40
2022/09/09 03:48:19;;;;;;;33.70;14.82;;;13.30;99.90;;;;;;5045837;28;20132;-41
2022/09/09 03:50:49;;;;;;;58.33;17.30;;;13.50;99.90;;;;;;5046898;28;20056;-40
2022/09/09 03:53:16;;;;;;;72.28;18.25;;;13.40;99.90;;;;;;5049789;28;20040;-41
2022/09/09 03:55:46;;;;;;;36.20;13.00;;;13.50;99.90;;;;;;5049642;28;20045;-40
2022/09/09 03:58:14;;;;;;;33.28;11.70;;;13.50;99.90;;;;;;5047865;28;20086;-41
2022/09/09 04:00:44;;;;;;;25.88;9.63;;;13.70;99.90;;;;;;5049371;28;20252;-40
2022/09/09 04:03:11;;;;;;;17.40;7.72;;;13.40;99.90;;;;;;5048674;28;20561;-40
2022/09/09 04:05:39;;;;;;;15.75;8.38;;;13.40;99.90;;;;;;5049036;28;20047;-40
2022/09/09 04:08:08;;;;;;;18.70;9.25;;;13.40;99.90;;;;;;5048816;28;20051;-40
2022/09/09 04:10:37;;;;;;;28.65;12.55;;;13.30;99.90;;;;;;5049518;28;20056;-40
2022/09/09 04:13:03;;;;;;;31.73;13.80;;;13.40;99.90;;;;;;5048487;28;20045;-40
2022/09/09 04:15:30;;;;;;;30.10;14.13;;;13.40;99.90;;;;;;5048985;28;20398;-40
2022/09/09 04:17:55;;;;;;;23.77;13.38;;;13.60;99.90;;;;;;5047414;28;20048;-40
2022/09/09 04:20:22;;;;;;;37.30;15.55;;;13.60;99.90;;;;;;5047667;28;20052;-40
2022/09/09 04:22:48;;;;;;;23.38;12.60;;;13.40;99.90;;;;;;5049159;28;20495;-40
2022/09/09 04:25:14;;;;;;;35.10;14.13;;;13.40;99.90;;;;;;5048888;28;20060;-40
2022/09/09 04:27:40;;;;;;;20.48;12.02;;;13.40;99.90;;;;;;5049330;28;20454;-41
2022/09/09 04:30:07;;;;;;;23.55;12.07;;;13.30;99.90;;;;;;5048440;28;20483;-40
2022/09/09 04:32:36;;;;;;;38.97;14.45;;;13.40;99.90;;;;;;5048733;28;20120;-41
2022/09/09 04:35:03;;;;;;;22.98;11.85;;;13.70;99.90;;;;;;5048256;28;20091;-40
2022/09/09 04:37:28;;;;;;;20.10;10.05;;;13.30;99.90;;;;;;5048051;28;20040;-41
2022/09/09 04:39:54;;;;;;;23.88;11.02;;;13.50;99.90;;;;;;5048256;28;20044;-41
2022/09/09 04:42:20;;;;;;;24.15;10.38;;;13.30;99.90;;;;;;5048057;28;20044;-40
2022/09/09 04:44:45;;;;;;;21.10;10.48;;;13.30;99.90;;;;;;5048664;28;20049;-41
2022/09/09 04:47:11;;;;;;;34.45;11.95;;;13.50;99.90;;;;;;5048387;28;20072;-40
2022/09/09 04:49:38;;;;;;;32.17;11.30;;;13.30;99.90;;;;;;5048653;28;20055;-40
2022/09/09 04:52:04;;;;;;;27.73;11.27;;;13.30;99.90;;;;;;5048321;28;20120;-40
2022/09/09 04:54:29;;;;;;;36.35;12.65;;;13.30;99.90;;;;;;5048235;28;20128;-40
2022/09/09 04:56:55;;;;;;;23.48;10.45;;;13.30;99.90;;;;;;5048322;28;20045;-41
2022/09/09 04:59:21;;;;;;;23.20;11.60;;;13.50;99.90;;;;;;5047447;28;20080;-40
2022/09/09 05:01:49;;;;;;;61.40;15.45;;;13.40;99.90;;;;;;5047183;28;20165;-40
2022/09/09 05:04:16;;;;;;;23.65;11.32;;;13.30;99.90;;;;;;5047648;28;20116;-40
2022/09/09 05:06:42;;;;;;;26.35;12.60;;;13.30;99.90;;;;;;5047976;28;20041;-40
2022/09/09 05:09:08;;;;;;;38.47;14.32;;;13.30;99.90;;;;;;5047646;28;20450;-40
2022/09/09 05:11:36;;;;;;;28.23;13.18;;;13.40;99.90;;;;;;5047733;28;20561;-40
2022/09/09 05:14:02;;;;;;;32.08;13.27;;;13.20;99.90;;;;;;5047286;28;20037;-40
2022/09/09 05:16:28;;;;;;;28.80;12.35;;;13.20;99.90;;;;;;5047911;28;20052;-40
2022/09/09 05:18:54;;;;;;;36.25;12.93;;;13.20;99.90;;;;;;5047322;28;20056;-40
2022/09/09 05:21:22;;;;;;;31.67;12.65;;;13.20;99.90;;;;;;5047888;28;20390;-41
2022/09/09 05:23:48;;;;;;;28.30;12.40;;;13.20;99.90;;;;;;5047110;28;20128;-40
2022/09/09 05:26:16;;;;;;;23.15;11.90;;;13.20;99.90;;;;;;5047059;28;20139;-40
2022/09/09 05:28:41;;;;;;;28.13;12.15;;;13.20;99.90;;;;;;5047377;28;20044;-40
2022/09/09 05:31:12;;;;;;;28.77;11.80;;;13.20;99.90;;;;;;5047004;28;20045;-41
2022/09/09 05:33:42;;;;;;;24.80;11.93;;;13.20;99.90;;;;;;5047315;28;20040;-40
2022/09/09 05:36:17;;;;;;;33.83;13.45;;;13.20;99.90;;;;;;5047037;28;20057;-40
2022/09/09 05:38:44;;;;;;;25.00;11.68;;;13.20;99.90;;;;;;5047478;28;20485;-40
2022/09/09 05:41:11;;;;;;;24.17;12.13;;;13.20;99.90;;;;;;5047264;28;20398;-40
2022/09/09 05:43:38;;;;;;;31.33;13.80;;;13.20;99.90;;;;;;5047150;28;20037;-40
2022/09/09 05:46:11;;;;;;;26.85;12.60;;;13.20;99.90;;;;;;5047137;28;20574;-40
2022/09/09 05:48:40;;;;;;;25.17;12.90;;;13.20;99.90;;;;;;5047298;28;20037;-41
2022/09/09 05:51:08;;;;;;;47.67;14.88;;;13.30;99.90;;;;;;5047403;28;20063;-40
2022/09/09 05:53:34;;;;;;;31.60;12.95;;;13.10;99.90;;;;;;5047013;28;20045;-40
2022/09/09 05:56:03;;;;;;;21.42;12.20;;;13.30;99.90;;;;;;5046739;28;20060;-40
2022/09/09 05:58:30;;;;;;;27.15;12.50;;;13.90;99.90;;;;;;5046826;28;20120;-40
2022/09/09 06:01:08;;;;;;;25.70;12.52;;;13.30;99.90;;;;;;5046782;28;20041;-40
2022/09/09 06:03:39;;;;;;;36.72;14.55;;;13.40;99.90;;;;;;5046768;28;20040;-41
2022/09/09 06:06:07;;;;;;;19.15;11.57;;;13.40;99.90;;;;;;5046776;28;20053;-40
2022/09/09 06:08:34;;;;;;;34.20;14.18;;;13.40;99.90;;;;;;5044983;28;20053;-42
2022/09/09 06:11:15;;;;;;;28.48;13.07;;;13.50;99.90;;;;;;5046585;28;20581;-42
2022/09/09 06:13:41;;;;;;;27.58;13.02;;;13.50;99.90;;;;;;5047004;28;20076;-40
2022/09/09 06:16:11;;;;;;;22.98;11.98;;;13.40;99.90;;;;;;5046998;28;20088;-42
2022/09/09 06:18:41;;;;;;;39.10;13.88;;;13.60;99.90;;;;;;5046702;28;20057;-40
2022/09/09 06:21:11;;;;;;;20.83;11.95;;;13.80;99.90;;;;;;5047091;28;20049;-40
2022/09/09 06:23:40;;;;;;;23.85;11.98;;;13.60;99.90;;;;;;5047009;28;20048;-41
2022/09/09 06:26:13;;;;;;;46.38;14.98;;;14.30;99.90;;;;;;5047211;28;20045;-40
2022/09/09 06:28:39;;;;;;;30.80;13.73;;;13.70;99.90;;;;;;5046731;28;20115;-40
2022/09/09 06:31:07;;;;;;;29.73;12.35;;;13.70;99.90;;;;;;5046401;28;20037;-40
2022/09/09 06:33:40;;;;;;;30.80;12.27;;;13.80;99.90;;;;;;5045181;28;20114;-41
2022/09/09 06:36:11;;;;;;;27.00;12.40;;;14.10;99.90;;;;;;5047035;28;20052;-40
2022/09/09 06:38:37;;;;;;;25.35;12.60;;;14.00;99.90;;;;;;5046712;28;20045;-40
2022/09/09 06:41:02;;;;;;;20.35;10.52;;;14.10;99.90;;;;;;5047182;28;20099;-40
2022/09/09 06:43:29;;;;;;;18.10;9.65;;;14.20;99.90;;;;;;5046934;28;20091;-40
2022/09/09 06:46:00;;;;;;;22.00;10.55;;;14.30;99.90;;;;;;5046736;28;20040;-41
2022/09/09 06:48:27;;;;;;;16.63;10.57;;;14.30;99.90;;;;;;5046116;28;20112;-39
2022/09/09 06:51:12;;;;;;;15.35;9.65;;;14.30;99.90;;;;;;5046720;28;20044;-40
2022/09/09 06:53:39;;;;;;;20.27;10.48;;;14.40;99.90;;;;;;5046169;28;20526;-40
2022/09/09 06:56:11;;;;;;;14.02;8.45;;;14.40;99.90;;;;;;5045965;28;20115;-40
2022/09/09 06:58:42;;;;;;;15.13;8.80;;;14.50;99.90;;;;;;5046243;28;20090;-39
2022/09/09 07:01:09;;;;;;;22.50;10.27;;;14.50;99.90;;;;;;5045295;28;20120;-39
2022/09/09 07:03:35;;;;;;;12.43;7.75;;;14.50;99.90;;;;;;5045956;28;20043;-40
2022/09/09 07:06:01;;;;;;;18.98;8.82;;;14.60;99.90;;;;;;5045937;28;20041;-41
2022/09/09 07:08:28;;;;;;;15.98;8.70;;;14.70;99.90;;;;;;5045898;28;20056;-41
2022/09/09 07:10:53;;;;;;;13.30;7.38;;;14.80;99.90;;;;;;5045270;28;20040;-41
2022/09/09 07:13:27;;;;;;;13.07;7.80;;;14.90;99.90;;;;;;5045765;28;20044;-41
2022/09/09 07:15:52;;;;;;;10.27;6.65;;;15.00;99.90;;;;;;5045718;28;20045;-41
2022/09/09 07:18:19;;;;;;;9.77;5.85;;;15.10;99.90;;;;;;5045228;28;20041;-41
2022/09/09 07:20:56;;;;;;;10.30;6.38;;;15.20;99.90;;;;;;5045162;28;20057;-41
2022/09/09 07:23:23;;;;;;;9.73;6.53;;;15.40;99.90;;;;;;5045022;28;20166;-41
2022/09/09 07:25:51;;;;;;;11.38;6.07;;;15.50;99.90;;;;;;5047204;28;20159;-41
2022/09/09 07:28:17;;;;;;;9.77;4.78;;;15.60;99.90;;;;;;5049662;28;20045;-41
2022/09/09 07:30:43;;;;;;;8.95;5.78;;;15.70;99.90;;;;;;5049579;28;20486;-41
2022/09/09 07:33:12;;;;;;;9.70;6.35;;;15.80;99.90;;;;;;5050401;28;20072;-42
2022/09/09 07:35:38;;;;;;;7.82;5.32;;;15.90;99.90;;;;;;5049009;28;20123;-41
2022/09/09 07:38:07;;;;;;;6.78;4.68;;;16.60;99.90;;;;;;5050117;28;20478;-41
2022/09/09 07:40:33;;;;;;;9.07;5.47;;;15.90;99.90;;;;;;5050021;28;20041;-41
2022/09/09 07:42:59;;;;;;;8.63;4.18;;;16.10;99.90;;;;;;5049903;28;20082;-41
2022/09/09 07:45:27;;;;;;;7.97;4.80;;;14.40;99.90;;;;;;5049849;28;20095;-41
2022/09/09 07:47:53;;;;;;;9.95;5.95;;;16.40;99.90;;;;;;5050140;28;20052;-41
2022/09/09 07:50:19;;;;;;;7.75;5.20;;;16.50;99.90;;;;;;5049527;28;20045;-41
2022/09/09 07:52:45;;;;;;;8.98;5.30;;;16.60;99.90;;;;;;5049904;28;20127;-41
2022/09/09 07:55:10;;;;;;;6.95;5.07;;;16.70;99.90;;;;;;5048949;28;20045;-42
2022/09/09 07:57:36;;;;;;;7.38;4.97;;;16.80;99.90;;;;;;5049302;28;20041;-41
2022/09/09 08:00:04;;;;;;;7.68;4.78;;;16.90;99.90;;;;;;5048820;28;20046;-42
2022/09/09 08:02:29;;;;;;;6.22;3.75;;;16.90;99.90;;;;;;5049339;28;20182;-41
2022/09/09 08:04:56;;;;;;;8.55;3.70;;;17.00;99.90;;;;;;5049522;28;20131;-44
2022/09/09 08:07:22;;;;;;;5.57;3.25;;;17.20;99.90;;;;;;5048910;28;20249;-42
2022/09/09 08:09:48;;;;;;;7.68;4.20;;;17.40;99.90;;;;;;5048406;28;20562;-41
2022/09/09 08:12:14;;;;;;;8.65;3.95;;;17.40;99.90;;;;;;5048877;28;20041;-41
2022/09/09 08:14:40;;;;;;;7.22;3.53;;;17.40;99.90;;;;;;5048175;28;20372;-42
2022/09/09 08:17:05;;;;;;;9.40;4.18;;;17.40;99.90;;;;;;5048633;28;20048;-43
2022/09/09 08:19:35;;;;;;;5.63;3.70;;;17.50;99.90;;;;;;5048200;28;20049;-43
2022/09/09 08:22:02;;;;;;;7.22;3.50;;;17.50;99.90;;;;;;5048543;28;20044;-42
2022/09/09 08:24:28;;;;;;;7.53;3.55;;;17.70;99.90;;;;;;5048396;28;20099;-42
2022/09/09 08:26:54;;;;;;;7.00;4.25;;;18.00;99.90;;;;;;5048998;28;20081;-42
2022/09/09 08:29:20;;;;;;;7.55;4.30;;;18.00;99.90;;;;;;5048657;28;20040;-42
2022/09/09 08:31:48;;;;;;;5.85;3.35;;;18.60;99.90;;;;;;5047947;28;20043;-42
2022/09/09 08:34:15;;;;;;;4.90;2.88;;;18.90;99.90;;;;;;5047867;28;20047;-42
2022/09/09 08:36:43;;;;;;;6.55;2.95;;;18.90;99.90;;;;;;5046783;28;20545;-43
2022/09/09 08:39:11;;;;;;;6.65;2.55;;;18.90;99.90;;;;;;5048367;28;20458;-42
2022/09/09 08:41:55;;;;;;;6.43;2.45;;;19.60;99.90;;;;;;5048183;28;20033;-42
2022/09/09 08:44:48;;;;;;;4.80;2.40;;;20.20;99.90;;;;;;5048055;28;20079;-42
2022/09/09 08:47:36;;;;;;;4.15;1.70;;;21.70;99.90;;;;;;5047839;28;20771;-43
2022/09/09 08:50:27;;;;;;;6.65;2.53;;;23.00;99.90;;;;;;5048177;28;20048;-42
2022/09/09 08:53:08;;;;;;;4.07;1.77;;;23.70;99.90;;;;;;5047634;28;20569;-41
2022/09/09 08:55:55;;;;;;;10.68;2.10;;;24.10;99.90;;;;;;5047763;28;20055;-43
2022/09/09 08:58:29;;;;;;;3.22;0.93;;;24.90;99.90;;;;;;5047786;28;20419;-43
2022/09/09 09:01:09;;;;;;;5.13;1.50;;;25.40;99.90;;;;;;5047597;28;20041;-43
2022/09/09 09:03:43;;;;;;;5.07;1.77;;;25.10;99.90;;;;;;5046200;28;20445;-43
2022/09/09 09:06:29;;;;;;;3.95;1.63;;;24.70;99.90;;;;;;5048102;28;20106;-43
2022/09/09 09:09:04;;;;;;;7.60;1.77;;;24.20;99.90;;;;;;5047937;28;20045;-42
2022/09/09 09:11:50;;;;;;;9.27;2.58;;;23.90;99.90;;;;;;5048444;28;20052;-42
2022/09/09 09:14:27;;;;;;;4.18;1.63;;;23.50;99.90;;;;;;5047990;28;20045;-42
2022/09/09 09:16:53;;;;;;;7.40;1.98;;;23.00;99.90;;;;;;5047702;28;20080;-42
2022/09/09 09:19:22;;;;;;;4.40;1.90;;;22.40;99.90;;;;;;5047764;28;20111;-42
2022/09/09 09:22:20;;;;;;;5.45;1.73;;;21.90;99.90;;;;;;5047312;28;20036;-42
2022/09/09 09:24:56;;;;;;;7.35;1.83;;;21.60;99.90;;;;;;5045160;28;20059;-42
2022/09/09 09:27:35;;;;;;;5.53;1.88;;;21.40;99.90;;;;;;5047532;28;20037;-42
2022/09/09 09:30:13;;;;;;;5.50;1.27;;;20.40;99.90;;;;;;5047126;28;20129;-42
2022/09/09 09:32:43;;;;;;;6.55;1.73;;;21.80;99.90;;;;;;5047501;28;20045;-42
2022/09/09 09:35:13;;;;;;;7.82;1.88;;;22.10;99.90;;;;;;5046926;28;20053;-42
2022/09/09 09:37:43;;;;;;;6.63;1.30;;;22.30;99.90;;;;;;5047533;28;20075;-44
2022/09/09 09:40:14;;;;;;;9.13;1.63;;;22.40;99.90;;;;;;5047901;28;20044;-43
2022/09/09 09:42:55;;;;;;;8.48;2.30;;;22.20;99.90;;;;;;5046610;28;20037;-42
2022/09/09 09:45:41;;;;;;;6.95;1.50;;;21.90;99.90;;;;;;5047545;28;20044;-44
2022/09/09 09:48:13;;;;;;;5.07;1.88;;;21.60;99.90;;;;;;5046898;28;20104;-42
2022/09/09 09:50:54;;;;;;;5.65;1.60;;;21.40;99.90;;;;;;5047155;28;20102;-45
2022/09/09 09:53:25;;;;;;;7.30;1.88;;;21.30;99.90;;;;;;5046910;28;20055;-42
2022/09/09 09:56:02;;;;;;;7.60;1.08;;;21.50;99.90;;;;;;5046781;28;20047;-43
2022/09/09 09:58:33;;;;;;;7.07;1.27;;;21.60;99.90;;;;;;5047128;28;20442;-46
2022/09/09 10:01:00;;;;;;;8.27;1.10;;;22.00;99.90;;;;;;5046823;28;20053;-42
2022/09/09 10:03:29;;;;;;;6.38;1.45;;;22.50;99.90;;;;;;5046527;28;20084;-45
2022/09/09 10:05:56;;;;;;;5.97;1.20;;;22.60;99.90;;;;;;5046827;28;20052;-46
2022/09/09 10:08:24;;;;;;;7.13;0.95;;;22.60;99.90;;;;;;5046697;28;20398;-43
2022/09/09 10:11:27;;;;;;;6.93;1.58;;;23.00;99.90;;;;;;5046400;28;20052;-42
2022/09/09 10:14:11;;;;;;;7.82;1.70;;;23.60;99.90;;;;;;5037717;28;20520;-46
2022/09/09 10:17:02;;;;;;;6.28;1.02;;;24.00;99.90;;;;;;5046374;28;20833;-42
2022/09/09 10:19:35;;;;;;;6.32;1.13;;;23.90;98.70;;;;;;5046169;28;20057;-47
2022/09/09 10:22:19;;;;;;;6.22;1.73;;;23.70;99.30;;;;;;5045794;28;20095;-44
2022/09/09 10:25:31;;;;;;;5.50;1.42;;;23.40;99.90;;;;;;5046487;28;20051;-42
2022/09/09 10:28:02;;;;;;;7.57;2.25;;;23.00;99.90;;;;;;5044737;28;20465;-43
2022/09/09 10:31:01;;;;;;;4.82;0.80;;;22.40;99.90;;;;;;5046344;28;20044;-45
2022/09/09 10:33:41;;;;;;;9.30;0.90;;;21.90;99.90;;;;;;5046213;28;20391;-44
2022/09/09 10:36:17;;;;;;;7.43;1.15;;;21.60;99.90;;;;;;5046107;28;20044;-42
2022/09/09 10:38:58;;;;;;;6.07;1.17;;;21.30;99.90;;;;;;5046712;28;20041;-43
2022/09/09 10:41:55;;;;;;;6.65;0.95;;;21.10;99.90;;;;;;5046328;28;20033;-45
2022/09/09 10:44:40;;;;;;;5.68;1.23;;;20.90;99.90;;;;;;5046154;28;20036;-44
2022/09/09 10:47:20;;;;;;;5.18;0.80;;;21.00;99.90;;;;;;5045674;28;20116;-42
2022/09/09 10:50:12;;;;;;;8.15;0.93;;;20.90;99.90;;;;;;5045999;28;20582;-42
2022/09/09 10:53:03;;;;;;;5.38;0.68;;;21.00;99.90;;;;;;5046227;28;20052;-43
2022/09/09 10:55:45;;;;;;;4.38;0.70;;;21.20;99.90;;;;;;5046518;28;20072;-43
2022/09/09 10:58:19;;;;;;;6.43;1.13;;;21.40;99.90;;;;;;5045929;28;20136;-43
2022/09/09 11:00:52;;;;;;;5.28;1.13;;;21.20;99.90;;;;;;5047299;28;20040;-42
2022/09/09 11:03:33;;;;;;;5.25;1.10;;;21.00;99.90;;;;;;5049780;28;20044;-42
2022/09/09 11:06:08;;;;;;;7.78;1.70;;;20.80;99.90;;;;;;5049831;28;20136;-42
2022/09/09 11:08:37;;;;;;;5.40;0.98;;;20.70;99.90;;;;;;5050507;28;20045;-42
2022/09/09 11:11:07;;;;;;;5.22;0.60;;;20.50;99.90;;;;;;5049795;28;20102;-43
2022/09/09 11:13:52;;;;;;;6.32;0.77;;;20.50;99.90;;;;;;5049805;28;20044;-43
2022/09/09 11:16:41;;;;;;;4.07;0.73;;;20.90;99.90;;;;;;5049711;28;20047;-42
2022/09/09 11:19:34;;;;;;;6.22;0.70;;;20.90;99.90;;;;;;5049278;28;20057;-43
2022/09/09 11:22:27;;;;;;;5.03;0.60;;;20.90;99.90;;;;;;5049537;28;20565;-43
2022/09/09 11:25:19;;;;;;;7.05;0.95;;;20.80;99.90;;;;;;5048331;28;20443;-43
2022/09/09 11:28:11;;;;;;;6.85;1.48;;;20.80;99.90;;;;;;5049972;28;20041;-44
2022/09/09 11:31:23;;;;;;;4.25;0.75;;;20.70;99.90;;;;;;5049791;28;20795;-43
2022/09/09 11:34:08;;;;;;;8.77;0.77;;;20.60;99.90;;;;;;5049514;28;20570;-43
2022/09/09 11:36:52;;;;;;;6.85;0.65;;;20.90;99.90;;;;;;5049380;28;20436;-42
2022/09/09 11:39:24;;;;;;;5.18;0.50;;;21.10;99.90;;;;;;5049217;28;20052;-43
2022/09/09 11:41:49;;;;;;;5.20;0.68;;;21.20;99.90;;;;;;5048945;28;20044;-43
2022/09/09 11:44:28;;;;;;;7.88;1.65;;;21.10;99.90;;;;;;5048266;28;20086;-44
2022/09/09 11:46:53;;;;;;;4.57;0.75;;;21.10;99.90;;;;;;5049666;28;20475;-43
2022/09/09 11:49:31;;;;;;;7.68;0.75;;;21.00;99.90;;;;;;5048976;28;20041;-43
2022/09/09 11:51:57;;;;;;;5.18;0.98;;;21.00;99.90;;;;;;5048983;28;20045;-43
2022/09/09 11:54:31;;;;;;;4.45;0.60;;;20.90;99.90;;;;;;5048825;28;20448;-43
2022/09/09 11:56:58;;;;;;;3.05;0.30;;;20.90;99.90;;;;;;5048716;28;20515;-45
2022/09/09 11:59:31;;;;;;;4.20;0.50;;;20.90;99.90;;;;;;5048674;28;20045;-42
2022/09/09 12:02:17;;;;;;;4.90;0.60;;;20.90;99.90;;;;;;5048969;28;20051;-43
2022/09/09 12:04:58;;;;;;;3.97;0.80;;;21.00;99.90;;;;;;5049019;28;20098;-42
2022/09/09 12:07:33;;;;;;;5.78;0.75;;;21.20;99.90;;;;;;5048501;28;20315;-42
2022/09/09 12:10:20;;;;;;;4.68;0.98;;;21.20;99.50;;;;;;5048684;28;20057;-42
2022/09/09 12:12:46;;;;;;;4.25;0.60;;;21.10;99.60;;;;;;5048543;28;20051;-42
2022/09/09 12:15:11;;;;;;;6.20;0.43;;;21.10;99.90;;;;;;5048440;28;20045;-43
2022/09/09 12:17:46;;;;;;;6.30;0.70;;;21.00;99.90;;;;;;5048863;28;20055;-42
2022/09/09 12:20:16;;;;;;;3.13;0.85;;;21.00;99.80;;;;;;5048251;28;20060;-42
2022/09/09 12:23:06;;;;;;;4.15;0.43;;;21.00;99.80;;;;;;5048846;28;20132;-43
2022/09/09 12:25:55;;;;;;;4.05;0.65;;;21.30;99.90;;;;;;5048254;28;20584;-43
2022/09/09 12:28:59;;;;;;;4.10;0.43;;;21.60;99.90;;;;;;5048660;28;20117;-42
2022/09/09 12:31:34;;;;;;;3.90;0.50;;;21.90;99.90;;;;;;5027086;28;20060;-43
2022/09/09 12:34:11;;;;;;;3.75;0.40;;;21.90;99.60;;;;;;5048183;28;20049;-42
2022/09/09 12:36:39;;;;;;;3.50;0.38;;;21.90;98.40;;;;;;5048198;28;20442;-43
2022/09/09 12:39:32;;;;;;;3.45;0.57;;;21.80;98.90;;;;;;5048445;28;20055;-42
2022/09/09 12:41:57;;;;;;;4.95;0.50;;;21.60;98.20;;;;;;5048287;28;20041;-42
2022/09/09 12:44:29;;;;;;;2.65;0.35;;;21.50;99.40;;;;;;5048320;28;20039;-43
2022/09/09 12:46:56;;;;;;;;;;;21.40;99.20;;;;;;5046542;28;20044;-46
2022/09/09 12:49:34;;;;;;;3.70;0.60;;;21.50;99.10;;;;;;5027784;28;19925;-47
2022/09/09 12:52:03;;;;;;;4.95;0.40;;;21.40;99.90;;;;;;5044570;28;20120;-44
2022/09/09 12:54:28;;;;;;;5.88;0.52;;;21.40;99.90;;;;;;5047142;28;20134;-49
2022/09/09 12:56:54;;;;;;;6.85;0.40;;;21.40;99.80;;;;;;5047759;28;20079;-45
2022/09/09 12:59:26;;;;;;;5.60;0.65;;;21.50;98.90;;;;;;5046321;28;20076;-44
2022/09/09 13:01:57;;;;;;;4.97;0.75;;;21.60;99.10;;;;;;5045714;28;20522;-45
2022/09/09 13:04:22;;;;;;;2.55;0.40;;;21.50;99.20;;;;;;5045934;28;20395;-50
2022/09/09 13:06:49;;;;;;;3.95;0.30;;;21.40;99.60;;;;;;5047340;28;20049;-46